sensor_id;sensor_type;location;lat;lon;timestamp;P1;durP1;ratioP1;P2;durP2;ratioP2
58643;SDS011;44411;49.994;8.660;2023-04-07T00:00:38;22.85;;;12.82;;
58643;SDS011;44411;49.994;8.660;2023-04-07T00:03:03;19.77;;;12.47;;
58643;SDS011;44411;49.994;8.660;2023-04-07T00:05:31;22.40;;;12.55;;
58643;SDS011;44411;49.994;8.660;2023-04-07T00:07:56;20.15;;;12.00;;
58643;SDS011;44411;49.994;8.660;2023-04-07T00:10:21;22.95;;;13.00;;
58643;SDS011;44411;49.994;8.660;2023-04-07T00:12:46;19.02;;;12.35;;
58643;SDS011;44411;49.994;8.660;2023-04-07T00:15:12;19.50;;;11.70;;
58643;SDS011;44411;49.994;8.660;2023-04-07T00:17:37;22.50;;;13.23;;
58643;SDS011;44411;49.994;8.660;2023-04-07T00:20:02;22.70;;;12.80;;
58643;SDS011;44411;49.994;8.660;2023-04-07T00:22:28;22.33;;;12.38;;
58643;SDS011;44411;49.994;8.660;2023-04-07T00:24:53;24.00;;;12.93;;
58643;SDS011;44411;49.994;8.660;2023-04-07T00:27:18;24.60;;;14.45;;
58643;SDS011;44411;49.994;8.660;2023-04-07T00:29:43;24.00;;;13.03;;
58643;SDS011;44411;49.994;8.660;2023-04-07T00:32:10;22.27;;;13.25;;
58643;SDS011;44411;49.994;8.660;2023-04-07T00:34:35;20.07;;;11.80;;
58643;SDS011;44411;49.994;8.660;2023-04-07T00:37:01;26.30;;;12.57;;
58643;SDS011;44411;49.994;8.660;2023-04-07T00:39:26;19.93;;;11.90;;
58643;SDS011;44411;49.994;8.660;2023-04-07T00:41:51;20.70;;;11.98;;
58643;SDS011;44411;49.994;8.660;2023-04-07T00:44:16;21.77;;;12.57;;
58643;SDS011;44411;49.994;8.660;2023-04-07T00:46:42;23.38;;;13.43;;
58643;SDS011;44411;49.994;8.660;2023-04-07T00:49:07;19.77;;;11.60;;
58643;SDS011;44411;49.994;8.660;2023-04-07T00:51:32;26.73;;;14.00;;
58643;SDS011;44411;49.994;8.660;2023-04-07T00:53:58;21.05;;;12.30;;
58643;SDS011;44411;49.994;8.660;2023-04-07T00:56:23;20.02;;;12.05;;
58643;SDS011;44411;49.994;8.660;2023-04-07T00:58:49;19.45;;;12.45;;
58643;SDS011;44411;49.994;8.660;2023-04-07T01:01:15;18.98;;;11.45;;
58643;SDS011;44411;49.994;8.660;2023-04-07T01:03:55;20.65;;;12.77;;
58643;SDS011;44411;49.994;8.660;2023-04-07T01:06:23;21.33;;;11.60;;
58643;SDS011;44411;49.994;8.660;2023-04-07T01:13:59;23.55;;;11.73;;
58643;SDS011;44411;49.994;8.660;2023-04-07T01:16:33;22.17;;;11.45;;
58643;SDS011;44411;49.994;8.660;2023-04-07T01:19:12;22.13;;;11.60;;
58643;SDS011;44411;49.994;8.660;2023-04-07T01:21:38;21.25;;;12.13;;
58643;SDS011;44411;49.994;8.660;2023-04-07T01:26:31;21.77;;;11.55;;
58643;SDS011;44411;49.994;8.660;2023-04-07T01:31:25;21.30;;;11.57;;
58643;SDS011;44411;49.994;8.660;2023-04-07T01:33:50;21.27;;;12.18;;
58643;SDS011;44411;49.994;8.660;2023-04-07T01:36:16;20.23;;;11.75;;
58643;SDS011;44411;49.994;8.660;2023-04-07T01:38:42;22.85;;;11.38;;
58643;SDS011;44411;49.994;8.660;2023-04-07T01:41:08;18.20;;;10.43;;
58643;SDS011;44411;49.994;8.660;2023-04-07T01:43:34;20.67;;;10.15;;
58643;SDS011;44411;49.994;8.660;2023-04-07T01:46:00;17.17;;;10.90;;
58643;SDS011;44411;49.994;8.660;2023-04-07T01:48:26;17.05;;;9.88;;
58643;SDS011;44411;49.994;8.660;2023-04-07T05:02:03;17.70;;;9.55;;
58643;SDS011;44411;49.994;8.660;2023-04-07T05:04:28;16.00;;;9.70;;
58643;SDS011;44411;49.994;8.660;2023-04-07T05:06:54;14.88;;;9.00;;
58643;SDS011;44411;49.994;8.660;2023-04-07T05:09:19;17.08;;;9.98;;
58643;SDS011;44411;49.994;8.660;2023-04-07T05:11:44;18.52;;;10.40;;
58643;SDS011;44411;49.994;8.660;2023-04-07T05:14:09;13.90;;;9.20;;
58643;SDS011;44411;49.994;8.660;2023-04-07T05:16:35;15.95;;;9.15;;
58643;SDS011;44411;49.994;8.660;2023-04-07T05:19:00;14.77;;;8.85;;
58643;SDS011;44411;49.994;8.660;2023-04-07T05:21:26;16.73;;;9.15;;
58643;SDS011;44411;49.994;8.660;2023-04-07T05:23:51;15.27;;;8.88;;
58643;SDS011;44411;49.994;8.660;2023-04-07T05:26:17;16.10;;;9.75;;
58643;SDS011;44411;49.994;8.660;2023-04-07T05:28:42;16.83;;;9.33;;
58643;SDS011;44411;49.994;8.660;2023-04-07T05:31:07;19.43;;;9.27;;
58643;SDS011;44411;49.994;8.660;2023-04-07T05:33:32;16.75;;;9.15;;
58643;SDS011;44411;49.994;8.660;2023-04-07T05:35:58;16.77;;;9.00;;
58643;SDS011;44411;49.994;8.660;2023-04-07T05:38:24;14.40;;;8.45;;
58643;SDS011;44411;49.994;8.660;2023-04-07T05:40:49;14.13;;;8.00;;
58643;SDS011;44411;49.994;8.660;2023-04-07T05:43:15;17.10;;;8.70;;
58643;SDS011;44411;49.994;8.660;2023-04-07T05:45:40;18.33;;;9.55;;
58643;SDS011;44411;49.994;8.660;2023-04-07T05:48:06;17.33;;;9.77;;
58643;SDS011;44411;49.994;8.660;2023-04-07T05:50:31;17.08;;;10.02;;
58643;SDS011;44411;49.994;8.660;2023-04-07T05:52:56;14.23;;;8.82;;
58643;SDS011;44411;49.994;8.660;2023-04-07T05:55:21;17.70;;;9.57;;
58643;SDS011;44411;49.994;8.660;2023-04-07T05:57:46;17.77;;;9.55;;
58643;SDS011;44411;49.994;8.660;2023-04-07T06:00:12;17.02;;;8.88;;
58643;SDS011;44411;49.994;8.660;2023-04-07T06:02:37;17.67;;;9.93;;
58643;SDS011;44411;49.994;8.660;2023-04-07T06:05:04;16.98;;;9.90;;
58643;SDS011;44411;49.994;8.660;2023-04-07T06:07:29;16.65;;;10.57;;
58643;SDS011;44411;49.994;8.660;2023-04-07T06:09:54;18.23;;;9.50;;
58643;SDS011;44411;49.994;8.660;2023-04-07T06:12:19;16.27;;;8.77;;
58643;SDS011;44411;49.994;8.660;2023-04-07T06:14:45;16.17;;;9.40;;
58643;SDS011;44411;49.994;8.660;2023-04-07T06:17:11;18.95;;;10.25;;
58643;SDS011;44411;49.994;8.660;2023-04-07T06:19:36;16.80;;;10.30;;
58643;SDS011;44411;49.994;8.660;2023-04-07T06:22:01;15.65;;;9.55;;
58643;SDS011;44411;49.994;8.660;2023-04-07T06:24:26;15.80;;;9.80;;
58643;SDS011;44411;49.994;8.660;2023-04-07T06:26:52;17.42;;;9.10;;
58643;SDS011;44411;49.994;8.660;2023-04-07T06:29:17;18.35;;;9.82;;
58643;SDS011;44411;49.994;8.660;2023-04-07T06:31:42;20.02;;;9.55;;
58643;SDS011;44411;49.994;8.660;2023-04-07T06:34:07;16.92;;;9.20;;
58643;SDS011;44411;49.994;8.660;2023-04-07T06:36:32;19.83;;;10.90;;
58643;SDS011;44411;49.994;8.660;2023-04-07T06:38:58;17.30;;;10.65;;
58643;SDS011;44411;49.994;8.660;2023-04-07T06:41:24;17.08;;;8.98;;
58643;SDS011;44411;49.994;8.660;2023-04-07T06:43:49;16.97;;;10.07;;
58643;SDS011;44411;49.994;8.660;2023-04-07T06:46:17;15.55;;;9.52;;
58643;SDS011;44411;49.994;8.660;2023-04-07T06:48:42;19.50;;;8.73;;
58643;SDS011;44411;49.994;8.660;2023-04-07T06:51:07;18.88;;;10.20;;
58643;SDS011;44411;49.994;8.660;2023-04-07T06:53:33;16.70;;;10.30;;
58643;SDS011;44411;49.994;8.660;2023-04-07T06:56:05;17.43;;;10.80;;
58643;SDS011;44411;49.994;8.660;2023-04-07T06:58:30;16.58;;;9.07;;
58643;SDS011;44411;49.994;8.660;2023-04-07T07:00:56;20.55;;;11.45;;
58643;SDS011;44411;49.994;8.660;2023-04-07T07:03:21;14.77;;;9.93;;
58643;SDS011;44411;49.994;8.660;2023-04-07T07:05:46;15.43;;;9.30;;
58643;SDS011;44411;49.994;8.660;2023-04-07T07:08:11;19.50;;;10.50;;
58643;SDS011;44411;49.994;8.660;2023-04-07T07:10:36;16.93;;;9.67;;
58643;SDS011;44411;49.994;8.660;2023-04-07T07:13:02;16.70;;;10.27;;
58643;SDS011;44411;49.994;8.660;2023-04-07T07:15:27;14.60;;;8.37;;
58643;SDS011;44411;49.994;8.660;2023-04-07T07:17:52;16.30;;;9.27;;
58643;SDS011;44411;49.994;8.660;2023-04-07T07:20:17;16.83;;;9.73;;
58643;SDS011;44411;49.994;8.660;2023-04-07T07:22:42;17.55;;;9.98;;
58643;SDS011;44411;49.994;8.660;2023-04-07T07:25:08;20.63;;;10.48;;
58643;SDS011;44411;49.994;8.660;2023-04-07T07:27:33;17.77;;;10.93;;
58643;SDS011;44411;49.994;8.660;2023-04-07T07:29:58;18.00;;;10.10;;
58643;SDS011;44411;49.994;8.660;2023-04-07T07:32:24;17.52;;;10.05;;
58643;SDS011;44411;49.994;8.660;2023-04-07T07:34:49;14.15;;;8.55;;
58643;SDS011;44411;49.994;8.660;2023-04-07T07:37:15;20.27;;;9.85;;
58643;SDS011;44411;49.994;8.660;2023-04-07T07:39:40;18.73;;;10.45;;
58643;SDS011;44411;49.994;8.660;2023-04-07T07:42:05;15.80;;;9.73;;
58643;SDS011;44411;49.994;8.660;2023-04-07T07:44:30;18.70;;;10.07;;
58643;SDS011;44411;49.994;8.660;2023-04-07T07:46:56;14.80;;;9.05;;
58643;SDS011;44411;49.994;8.660;2023-04-07T07:49:21;15.93;;;9.77;;
58643;SDS011;44411;49.994;8.660;2023-04-07T07:51:46;18.87;;;10.30;;
58643;SDS011;44411;49.994;8.660;2023-04-07T07:54:11;16.90;;;9.77;;
58643;SDS011;44411;49.994;8.660;2023-04-07T07:56:37;15.47;;;9.47;;
58643;SDS011;44411;49.994;8.660;2023-04-07T07:59:03;17.30;;;9.82;;
58643;SDS011;44411;49.994;8.660;2023-04-07T08:01:30;17.08;;;9.55;;
58643;SDS011;44411;49.994;8.660;2023-04-07T08:03:55;20.97;;;10.67;;
58643;SDS011;44411;49.994;8.660;2023-04-07T08:06:20;16.57;;;9.17;;
58643;SDS011;44411;49.994;8.660;2023-04-07T08:08:45;20.00;;;10.32;;
58643;SDS011;44411;49.994;8.660;2023-04-07T08:11:11;16.80;;;9.98;;
58643;SDS011;44411;49.994;8.660;2023-04-07T08:13:38;16.73;;;9.35;;
58643;SDS011;44411;49.994;8.660;2023-04-07T08:16:04;16.80;;;9.53;;
58643;SDS011;44411;49.994;8.660;2023-04-07T08:18:29;16.88;;;10.27;;
58643;SDS011;44411;49.994;8.660;2023-04-07T08:20:54;17.83;;;10.13;;
58643;SDS011;44411;49.994;8.660;2023-04-07T08:23:21;16.38;;;9.77;;
58643;SDS011;44411;49.994;8.660;2023-04-07T08:25:46;14.30;;;8.45;;
58643;SDS011;44411;49.994;8.660;2023-04-07T08:28:11;17.35;;;9.73;;
58643;SDS011;44411;49.994;8.660;2023-04-07T08:30:37;19.38;;;10.75;;
58643;SDS011;44411;49.994;8.660;2023-04-07T08:33:02;15.25;;;9.23;;
58643;SDS011;44411;49.994;8.660;2023-04-07T08:35:28;14.85;;;9.50;;
58643;SDS011;44411;49.994;8.660;2023-04-07T08:37:53;16.63;;;10.10;;
58643;SDS011;44411;49.994;8.660;2023-04-07T08:40:18;15.20;;;10.18;;
58643;SDS011;44411;49.994;8.660;2023-04-07T08:42:45;16.13;;;10.18;;
58643;SDS011;44411;49.994;8.660;2023-04-07T08:45:11;16.15;;;8.98;;
58643;SDS011;44411;49.994;8.660;2023-04-07T08:47:36;19.80;;;11.65;;
58643;SDS011;44411;49.994;8.660;2023-04-07T08:50:05;19.85;;;11.63;;
58643;SDS011;44411;49.994;8.660;2023-04-07T08:52:44;18.08;;;10.38;;
58643;SDS011;44411;49.994;8.660;2023-04-07T08:55:10;19.00;;;9.77;;
58643;SDS011;44411;49.994;8.660;2023-04-07T08:57:36;15.60;;;10.15;;
58643;SDS011;44411;49.994;8.660;2023-04-07T09:00:01;15.70;;;10.82;;
58643;SDS011;44411;49.994;8.660;2023-04-07T09:02:30;17.67;;;10.85;;
58643;SDS011;44411;49.994;8.660;2023-04-07T09:04:56;20.27;;;11.52;;
58643;SDS011;44411;49.994;8.660;2023-04-07T09:07:22;16.75;;;10.18;;
58643;SDS011;44411;49.994;8.660;2023-04-07T09:09:47;16.73;;;10.15;;
58643;SDS011;44411;49.994;8.660;2023-04-07T09:12:12;18.63;;;10.10;;
58643;SDS011;44411;49.994;8.660;2023-04-07T09:14:37;16.20;;;10.03;;
58643;SDS011;44411;49.994;8.660;2023-04-07T09:17:03;14.70;;;9.53;;
58643;SDS011;44411;49.994;8.660;2023-04-07T09:19:28;14.10;;;9.00;;
58643;SDS011;44411;49.994;8.660;2023-04-07T09:21:54;18.70;;;11.15;;
58643;SDS011;44411;49.994;8.660;2023-04-07T09:24:27;13.70;;;9.45;;
58643;SDS011;44411;49.994;8.660;2023-04-07T09:29:38;16.25;;;10.30;;
58643;SDS011;44411;49.994;8.660;2023-04-07T09:32:03;15.48;;;10.73;;
58643;SDS011;44411;49.994;8.660;2023-04-07T09:34:33;16.88;;;9.25;;
58643;SDS011;44411;49.994;8.660;2023-04-07T09:36:59;17.05;;;10.02;;
58643;SDS011;44411;49.994;8.660;2023-04-07T09:39:24;16.45;;;10.13;;
58643;SDS011;44411;49.994;8.660;2023-04-07T09:41:50;17.13;;;10.73;;
58643;SDS011;44411;49.994;8.660;2023-04-07T09:44:16;15.27;;;9.88;;
58643;SDS011;44411;49.994;8.660;2023-04-07T09:46:48;16.00;;;11.00;;
58643;SDS011;44411;49.994;8.660;2023-04-07T09:49:13;16.02;;;10.45;;
58643;SDS011;44411;49.994;8.660;2023-04-07T09:51:39;16.70;;;10.95;;
58643;SDS011;44411;49.994;8.660;2023-04-07T09:54:16;17.67;;;11.20;;
58643;SDS011;44411;49.994;8.660;2023-04-07T09:56:55;17.20;;;11.60;;
58643;SDS011;44411;49.994;8.660;2023-04-07T09:59:21;15.68;;;10.73;;
58643;SDS011;44411;49.994;8.660;2023-04-07T10:01:46;17.15;;;12.52;;
58643;SDS011;44411;49.994;8.660;2023-04-07T10:04:12;17.63;;;11.83;;
58643;SDS011;44411;49.994;8.660;2023-04-07T10:06:37;19.90;;;12.63;;
58643;SDS011;44411;49.994;8.660;2023-04-07T10:09:03;19.33;;;12.45;;
58643;SDS011;44411;49.994;8.660;2023-04-07T10:11:28;18.33;;;12.65;;
58643;SDS011;44411;49.994;8.660;2023-04-07T10:13:53;16.50;;;10.60;;
58643;SDS011;44411;49.994;8.660;2023-04-07T10:16:18;18.20;;;11.95;;
58643;SDS011;44411;49.994;8.660;2023-04-07T10:18:44;20.55;;;12.77;;
58643;SDS011;44411;49.994;8.660;2023-04-07T10:21:10;16.27;;;11.00;;
58643;SDS011;44411;49.994;8.660;2023-04-07T10:26:16;14.15;;;9.43;;
58643;SDS011;44411;49.994;8.660;2023-04-07T10:28:44;12.10;;;8.77;;
58643;SDS011;44411;49.994;8.660;2023-04-07T10:31:10;13.00;;;8.77;;
58643;SDS011;44411;49.994;8.660;2023-04-07T10:33:43;15.50;;;9.23;;
58643;SDS011;44411;49.994;8.660;2023-04-07T10:36:08;13.93;;;8.57;;
58643;SDS011;44411;49.994;8.660;2023-04-07T10:38:33;14.23;;;9.23;;
58643;SDS011;44411;49.994;8.660;2023-04-07T10:40:59;14.45;;;8.40;;
58643;SDS011;44411;49.994;8.660;2023-04-07T10:43:37;12.13;;;7.50;;
58643;SDS011;44411;49.994;8.660;2023-04-07T10:46:03;12.20;;;6.93;;
58643;SDS011;44411;49.994;8.660;2023-04-07T10:48:29;12.88;;;7.68;;
58643;SDS011;44411;49.994;8.660;2023-04-07T10:53:32;11.38;;;7.93;;
58643;SDS011;44411;49.994;8.660;2023-04-07T10:56:00;14.50;;;8.05;;
58643;SDS011;44411;49.994;8.660;2023-04-07T10:58:26;12.90;;;7.90;;
58643;SDS011;44411;49.994;8.660;2023-04-07T11:06:06;13.57;;;8.02;;
58643;SDS011;44411;49.994;8.660;2023-04-07T11:08:36;13.98;;;9.13;;
58643;SDS011;44411;49.994;8.660;2023-04-07T11:11:01;13.00;;;8.48;;
58643;SDS011;44411;49.994;8.660;2023-04-07T11:13:27;15.60;;;8.30;;
58643;SDS011;44411;49.994;8.660;2023-04-07T11:15:52;16.27;;;8.32;;
58643;SDS011;44411;49.994;8.660;2023-04-07T11:18:19;14.25;;;9.07;;
58643;SDS011;44411;49.994;8.660;2023-04-07T11:23:10;11.88;;;7.75;;
58643;SDS011;44411;49.994;8.660;2023-04-07T11:25:36;12.77;;;8.98;;
58643;SDS011;44411;49.994;8.660;2023-04-07T11:28:02;14.57;;;9.40;;
58643;SDS011;44411;49.994;8.660;2023-04-07T11:30:27;17.88;;;11.30;;
58643;SDS011;44411;49.994;8.660;2023-04-07T11:32:53;15.82;;;10.70;;
58643;SDS011;44411;49.994;8.660;2023-04-07T11:35:18;17.10;;;10.40;;
58643;SDS011;44411;49.994;8.660;2023-04-07T11:37:43;16.50;;;9.63;;
58643;SDS011;44411;49.994;8.660;2023-04-07T11:40:09;15.25;;;8.70;;
58643;SDS011;44411;49.994;8.660;2023-04-07T11:42:38;18.40;;;10.05;;
58643;SDS011;44411;49.994;8.660;2023-04-07T11:45:04;15.27;;;8.85;;
58643;SDS011;44411;49.994;8.660;2023-04-07T11:47:36;14.13;;;8.73;;
58643;SDS011;44411;49.994;8.660;2023-04-07T11:50:01;16.25;;;9.73;;
58643;SDS011;44411;49.994;8.660;2023-04-07T11:52:26;16.27;;;8.82;;
58643;SDS011;44411;49.994;8.660;2023-04-07T11:54:52;14.70;;;8.63;;
58643;SDS011;44411;49.994;8.660;2023-04-07T11:57:24;16.33;;;9.20;;
58643;SDS011;44411;49.994;8.660;2023-04-07T11:59:49;17.10;;;10.30;;
58643;SDS011;44411;49.994;8.660;2023-04-07T12:02:30;18.05;;;9.85;;
58643;SDS011;44411;49.994;8.660;2023-04-07T12:04:56;16.50;;;10.32;;
58643;SDS011;44411;49.994;8.660;2023-04-07T12:07:21;14.00;;;8.57;;
58643;SDS011;44411;49.994;8.660;2023-04-07T12:09:47;16.90;;;9.85;;
58643;SDS011;44411;49.994;8.660;2023-04-07T12:12:12;16.27;;;9.63;;
58643;SDS011;44411;49.994;8.660;2023-04-07T12:14:37;19.45;;;11.85;;
58643;SDS011;44411;49.994;8.660;2023-04-07T12:17:03;16.98;;;9.98;;
58643;SDS011;44411;49.994;8.660;2023-04-07T12:19:28;17.98;;;10.23;;
58643;SDS011;44411;49.994;8.660;2023-04-07T12:21:54;19.55;;;11.30;;
58643;SDS011;44411;49.994;8.660;2023-04-07T12:24:20;16.98;;;11.32;;
58643;SDS011;44411;49.994;8.660;2023-04-07T12:26:45;20.52;;;12.57;;
58643;SDS011;44411;49.994;8.660;2023-04-07T12:29:12;16.92;;;10.38;;
58643;SDS011;44411;49.994;8.660;2023-04-07T12:31:40;20.10;;;11.50;;
58643;SDS011;44411;49.994;8.660;2023-04-07T12:34:06;18.13;;;11.35;;
58643;SDS011;44411;49.994;8.660;2023-04-07T12:36:31;17.20;;;10.88;;
58643;SDS011;44411;49.994;8.660;2023-04-07T12:38:57;18.65;;;11.63;;
58643;SDS011;44411;49.994;8.660;2023-04-07T12:41:23;17.00;;;10.93;;
58643;SDS011;44411;49.994;8.660;2023-04-07T12:43:48;18.58;;;10.43;;
58643;SDS011;44411;49.994;8.660;2023-04-07T12:46:14;17.38;;;9.50;;
58643;SDS011;44411;49.994;8.660;2023-04-07T12:48:39;13.65;;;10.00;;
58643;SDS011;44411;49.994;8.660;2023-04-07T12:51:04;17.67;;;9.52;;
58643;SDS011;44411;49.994;8.660;2023-04-07T12:53:30;15.07;;;10.15;;
58643;SDS011;44411;49.994;8.660;2023-04-07T12:55:55;15.23;;;9.02;;
58643;SDS011;44411;49.994;8.660;2023-04-07T12:58:21;13.00;;;8.73;;
58643;SDS011;44411;49.994;8.660;2023-04-07T13:00:46;14.45;;;8.70;;
58643;SDS011;44411;49.994;8.660;2023-04-07T13:03:12;12.75;;;8.52;;
58643;SDS011;44411;49.994;8.660;2023-04-07T13:05:38;12.32;;;7.80;;
58643;SDS011;44411;49.994;8.660;2023-04-07T13:08:03;13.60;;;8.80;;
58643;SDS011;44411;49.994;8.660;2023-04-07T13:10:28;13.30;;;7.75;;
58643;SDS011;44411;49.994;8.660;2023-04-07T13:12:54;12.85;;;8.02;;
58643;SDS011;44411;49.994;8.660;2023-04-07T13:15:19;12.20;;;8.27;;
58643;SDS011;44411;49.994;8.660;2023-04-07T13:17:45;13.65;;;7.88;;
58643;SDS011;44411;49.994;8.660;2023-04-07T13:20:10;12.93;;;7.53;;
58643;SDS011;44411;49.994;8.660;2023-04-07T13:22:35;11.93;;;7.50;;
58643;SDS011;44411;49.994;8.660;2023-04-07T13:25:00;12.00;;;7.27;;
58643;SDS011;44411;49.994;8.660;2023-04-07T13:27:26;11.73;;;6.78;;
58643;SDS011;44411;49.994;8.660;2023-04-07T13:29:51;10.40;;;6.68;;
58643;SDS011;44411;49.994;8.660;2023-04-07T13:32:16;10.98;;;7.00;;
58643;SDS011;44411;49.994;8.660;2023-04-07T13:34:42;8.45;;;6.00;;
58643;SDS011;44411;49.994;8.660;2023-04-07T13:37:08;10.95;;;6.63;;
58643;SDS011;44411;49.994;8.660;2023-04-07T13:39:33;9.90;;;6.35;;
58643;SDS011;44411;49.994;8.660;2023-04-07T13:41:58;9.37;;;6.00;;
58643;SDS011;44411;49.994;8.660;2023-04-07T13:44:27;9.30;;;5.43;;
58643;SDS011;44411;49.994;8.660;2023-04-07T13:46:53;9.70;;;5.45;;
58643;SDS011;44411;49.994;8.660;2023-04-07T13:49:18;10.23;;;6.72;;
58643;SDS011;44411;49.994;8.660;2023-04-07T13:51:44;10.30;;;6.72;;
58643;SDS011;44411;49.994;8.660;2023-04-07T13:54:09;12.35;;;6.88;;
58643;SDS011;44411;49.994;8.660;2023-04-07T13:56:35;9.07;;;5.82;;
58643;SDS011;44411;49.994;8.660;2023-04-07T13:59:02;10.52;;;6.40;;
58643;SDS011;44411;49.994;8.660;2023-04-07T14:01:27;11.90;;;7.32;;
58643;SDS011;44411;49.994;8.660;2023-04-07T14:03:52;13.80;;;7.33;;
58643;SDS011;44411;49.994;8.660;2023-04-07T14:06:18;8.50;;;5.53;;
58643;SDS011;44411;49.994;8.660;2023-04-07T14:08:46;10.57;;;5.65;;
58643;SDS011;44411;49.994;8.660;2023-04-07T14:11:15;8.75;;;5.40;;
58643;SDS011;44411;49.994;8.660;2023-04-07T14:13:40;9.02;;;6.30;;
58643;SDS011;44411;49.994;8.660;2023-04-07T14:16:05;10.48;;;6.00;;
58643;SDS011;44411;49.994;8.660;2023-04-07T14:18:31;9.48;;;6.47;;
58643;SDS011;44411;49.994;8.660;2023-04-07T14:20:57;10.70;;;6.63;;
58643;SDS011;44411;49.994;8.660;2023-04-07T14:23:22;9.70;;;6.47;;
58643;SDS011;44411;49.994;8.660;2023-04-07T14:25:47;9.27;;;6.13;;
58643;SDS011;44411;49.994;8.660;2023-04-07T14:28:12;8.33;;;5.90;;
58643;SDS011;44411;49.994;8.660;2023-04-07T14:30:38;8.65;;;5.50;;
58643;SDS011;44411;49.994;8.660;2023-04-07T14:33:03;7.70;;;5.05;;
58643;SDS011;44411;49.994;8.660;2023-04-07T14:35:29;5.78;;;3.75;;
58643;SDS011;44411;49.994;8.660;2023-04-07T14:37:54;5.80;;;3.50;;
58643;SDS011;44411;49.994;8.660;2023-04-07T14:40:19;7.40;;;4.07;;
58643;SDS011;44411;49.994;8.660;2023-04-07T14:42:44;6.10;;;3.88;;
58643;SDS011;44411;49.994;8.660;2023-04-07T14:45:10;8.47;;;5.33;;
58643;SDS011;44411;49.994;8.660;2023-04-07T14:47:36;5.65;;;3.88;;
58643;SDS011;44411;49.994;8.660;2023-04-07T14:50:01;8.80;;;5.20;;
58643;SDS011;44411;49.994;8.660;2023-04-07T14:52:27;5.70;;;3.38;;
58643;SDS011;44411;49.994;8.660;2023-04-07T14:54:52;5.73;;;3.37;;
58643;SDS011;44411;49.994;8.660;2023-04-07T14:57:18;12.68;;;4.72;;
58643;SDS011;44411;49.994;8.660;2023-04-07T14:59:43;8.15;;;3.70;;
58643;SDS011;44411;49.994;8.660;2023-04-07T15:02:08;6.77;;;3.90;;
58643;SDS011;44411;49.994;8.660;2023-04-07T15:04:34;5.05;;;3.05;;
58643;SDS011;44411;49.994;8.660;2023-04-07T15:06:59;7.53;;;4.28;;
58643;SDS011;44411;49.994;8.660;2023-04-07T15:09:24;6.10;;;3.83;;
58643;SDS011;44411;49.994;8.660;2023-04-07T15:11:49;6.03;;;3.50;;
58643;SDS011;44411;49.994;8.660;2023-04-07T15:14:15;6.57;;;3.90;;
58643;SDS011;44411;49.994;8.660;2023-04-07T15:16:40;7.33;;;4.10;;
58643;SDS011;44411;49.994;8.660;2023-04-07T15:19:05;6.73;;;3.10;;
58643;SDS011;44411;49.994;8.660;2023-04-07T15:21:30;6.03;;;3.13;;
58643;SDS011;44411;49.994;8.660;2023-04-07T15:23:56;6.10;;;3.30;;
58643;SDS011;44411;49.994;8.660;2023-04-07T15:26:21;5.47;;;3.28;;
58643;SDS011;44411;49.994;8.660;2023-04-07T15:28:46;5.32;;;3.10;;
58643;SDS011;44411;49.994;8.660;2023-04-07T15:31:12;5.35;;;3.28;;
58643;SDS011;44411;49.994;8.660;2023-04-07T15:33:38;8.20;;;3.38;;
58643;SDS011;44411;49.994;8.660;2023-04-07T15:36:04;7.05;;;3.42;;
58643;SDS011;44411;49.994;8.660;2023-04-07T15:38:29;5.72;;;3.72;;
58643;SDS011;44411;49.994;8.660;2023-04-07T15:40:55;5.55;;;3.55;;
58643;SDS011;44411;49.994;8.660;2023-04-07T15:43:20;5.80;;;3.58;;
58643;SDS011;44411;49.994;8.660;2023-04-07T15:45:45;6.10;;;3.80;;
58643;SDS011;44411;49.994;8.660;2023-04-07T15:48:11;5.70;;;3.45;;
58643;SDS011;44411;49.994;8.660;2023-04-07T15:50:36;5.72;;;3.50;;
58643;SDS011;44411;49.994;8.660;2023-04-07T15:53:05;5.38;;;3.13;;
58643;SDS011;44411;49.994;8.660;2023-04-07T15:55:31;5.40;;;3.20;;
58643;SDS011;44411;49.994;8.660;2023-04-07T15:57:56;5.25;;;3.30;;
58643;SDS011;44411;49.994;8.660;2023-04-07T16:00:21;5.40;;;3.33;;
58643;SDS011;44411;49.994;8.660;2023-04-07T16:02:47;4.87;;;2.67;;
58643;SDS011;44411;49.994;8.660;2023-04-07T16:05:12;6.63;;;3.08;;
58643;SDS011;44411;49.994;8.660;2023-04-07T16:07:37;4.33;;;2.40;;
58643;SDS011;44411;49.994;8.660;2023-04-07T16:10:02;4.23;;;2.70;;
58643;SDS011;44411;49.994;8.660;2023-04-07T16:12:28;5.32;;;2.75;;
58643;SDS011;44411;49.994;8.660;2023-04-07T16:14:53;5.87;;;2.37;;
58643;SDS011;44411;49.994;8.660;2023-04-07T16:17:18;4.57;;;2.60;;
58643;SDS011;44411;49.994;8.660;2023-04-07T16:19:44;3.53;;;2.00;;
58643;SDS011;44411;49.994;8.660;2023-04-07T16:22:09;4.28;;;2.20;;
58643;SDS011;44411;49.994;8.660;2023-04-07T16:24:34;4.20;;;2.35;;
58643;SDS011;44411;49.994;8.660;2023-04-07T16:27:00;3.72;;;1.85;;
58643;SDS011;44411;49.994;8.660;2023-04-07T16:29:25;3.60;;;2.08;;
58643;SDS011;44411;49.994;8.660;2023-04-07T16:31:51;3.45;;;1.77;;
58643;SDS011;44411;49.994;8.660;2023-04-07T16:34:16;3.10;;;1.63;;
58643;SDS011;44411;49.994;8.660;2023-04-07T16:36:41;3.50;;;1.67;;
58643;SDS011;44411;49.994;8.660;2023-04-07T16:39:06;3.22;;;1.92;;
58643;SDS011;44411;49.994;8.660;2023-04-07T16:41:32;3.50;;;1.83;;
58643;SDS011;44411;49.994;8.660;2023-04-07T16:43:57;3.42;;;1.50;;
58643;SDS011;44411;49.994;8.660;2023-04-07T16:46:25;3.17;;;1.65;;
58643;SDS011;44411;49.994;8.660;2023-04-07T16:48:51;3.45;;;1.30;;
58643;SDS011;44411;49.994;8.660;2023-04-07T16:51:16;2.17;;;1.38;;
58643;SDS011;44411;49.994;8.660;2023-04-07T16:53:42;1.85;;;1.20;;
58643;SDS011;44411;49.994;8.660;2023-04-07T16:56:13;3.15;;;1.60;;
58643;SDS011;44411;49.994;8.660;2023-04-07T16:58:39;1.95;;;1.20;;
58643;SDS011;44411;49.994;8.660;2023-04-07T17:01:04;2.90;;;1.53;;
58643;SDS011;44411;49.994;8.660;2023-04-07T17:03:29;2.78;;;1.45;;
58643;SDS011;44411;49.994;8.660;2023-04-07T17:05:55;2.33;;;1.33;;
58643;SDS011;44411;49.994;8.660;2023-04-07T17:08:20;1.13;;;0.82;;
58643;SDS011;44411;49.994;8.660;2023-04-07T17:10:45;1.80;;;1.10;;
58643;SDS011;44411;49.994;8.660;2023-04-07T17:13:10;2.07;;;1.17;;
58643;SDS011;44411;49.994;8.660;2023-04-07T17:15:35;1.27;;;0.87;;
58643;SDS011;44411;49.994;8.660;2023-04-07T17:18:02;1.92;;;0.95;;
58643;SDS011;44411;49.994;8.660;2023-04-07T17:20:27;1.55;;;1.08;;
58643;SDS011;44411;49.994;8.660;2023-04-07T17:22:52;1.93;;;0.80;;
58643;SDS011;44411;49.994;8.660;2023-04-07T17:25:17;1.50;;;1.00;;
58643;SDS011;44411;49.994;8.660;2023-04-07T17:27:42;1.97;;;0.90;;
58643;SDS011;44411;49.994;8.660;2023-04-07T17:30:08;2.83;;;1.27;;
58643;SDS011;44411;49.994;8.660;2023-04-07T17:32:33;2.47;;;1.17;;
58643;SDS011;44411;49.994;8.660;2023-04-07T17:34:58;2.33;;;1.50;;
58643;SDS011;44411;49.994;8.660;2023-04-07T17:37:23;4.17;;;1.73;;
58643;SDS011;44411;49.994;8.660;2023-04-07T17:39:49;3.30;;;1.20;;
58643;SDS011;44411;49.994;8.660;2023-04-07T17:42:14;2.83;;;1.30;;
58643;SDS011;44411;49.994;8.660;2023-04-07T17:44:39;1.30;;;1.00;;
58643;SDS011;44411;49.994;8.660;2023-04-07T17:47:04;3.07;;;1.50;;
58643;SDS011;44411;49.994;8.660;2023-04-07T17:49:30;2.43;;;1.30;;
58643;SDS011;44411;49.994;8.660;2023-04-07T17:51:55;3.22;;;1.52;;
58643;SDS011;44411;49.994;8.660;2023-04-07T17:54:20;2.67;;;1.23;;
58643;SDS011;44411;49.994;8.660;2023-04-07T17:56:46;2.92;;;1.40;;
58643;SDS011;44411;49.994;8.660;2023-04-07T17:59:11;2.78;;;1.48;;
58643;SDS011;44411;49.994;8.660;2023-04-07T18:01:36;3.30;;;1.65;;